MDT,Max TemperatureF,Mean TemperatureF,Min TemperatureF,Max Dew PointF,MeanDew PointF,Min DewpointF,Max Humidity, Mean Humidity, Min Humidity, Max Sea Level PressureIn, Mean Sea Level PressureIn, Min Sea Level PressureIn, Max VisibilityMiles, Mean VisibilityMiles, Min VisibilityMiles, Max Wind SpeedMPH, Mean Wind SpeedMPH, Max Gust SpeedMPH,PrecipitationIn, CloudCover, Events, WindDirDegrees
2013-6-1,69,58,46,52,48,45,93,69,45,30.21,30.16,30.08,,,,12,5,15,0.00,,,284
2013-6-2,71,61,51,52,46,42,86,62,37,30.07,29.90,29.72,,,,20,11,26,0.09,,,99
2013-6-3,56,51,46,51,47,45,93,80,66,29.99,29.70,29.58,,,,25,15,33,0.36,,,79
2013-6-4,60,52,44,46,43,40,93,62,31,30.26,30.18,30.01,,,,18,9,23,0.03,,,341
2013-6-5,66,53,39,46,42,38,100,71,42,30.25,30.16,30.05,,,,14,4,16,0.00,,,159
2013-6-6,74,61,48,53,47,43,93,63,33,30.06,30.02,29.99,,,,16,5,20,0.00,,,39
2013-6-7,79,62,46,59,53,44,93,68,42,29.99,29.78,29.56,,,,13,4,21,0.00,,,122
2013-6-8,72,62,51,56,49,43,100,68,35,29.89,29.80,29.64,,,,30,14,38,0.00,,,306
2013-6-9,83,66,49,56,49,44,93,62,30,29.91,29.78,29.64,,,,28,7,33,0.01,,,274
2013-6-10,75,62,49,51,48,45,93,64,35,29.86,29.83,29.77,,,,12,5,16,0.00,,,45
2013-6-11,80,68,55,57,52,49,93,64,35,29.96,29.86,29.78,,,,39,13,46,1.23,,,82
2013-6-12,71,62,52,57,55,51,100,71,42,30.08,30.03,29.98,,,,21,11,26,0.00,,,104
2013-6-13,78,67,56,62,57,53,93,73,53,29.98,29.85,29.77,,,,28,11,36,0.44,,,75
2013-6-14,69,59,48,57,49,40,93,64,35,29.98,29.89,29.81,,,,41,14,53,0.51,,,278
2013-6-15,74,60,46,50,44,40,89,61,33,29.99,29.96,29.90,,,,20,10,31,0.00,,,275
2013-6-16,74,60,45,51,48,44,93,67,41,30.12,30.05,29.99,,,,22,9,28,0.00,,,318
2013-6-17,76,62,47,55,50,46,100,71,41,30.15,30.09,30.00,,,,9,4,14,0.00,,,79
2013-6-18,86,70,54,59,55,51,86,62,37,30.02,29.86,29.70,,,,23,12,29,0.00,,,106
2013-6-19,88,73,57,59,55,50,86,60,34,29.69,29.57,29.42,,,,43,17,56,0.38,,,99
2013-6-20,74,63,52,56,49,41,100,66,31,29.97,29.82,29.62,,,,21,8,25,0.00,,,283
2013-6-21,72,61,49,52,49,44,93,69,44,30.04,30.00,29.96,,,,30,7,36,0.02,,,41
2013-6-22,72,61,49,54,51,48,100,76,51,30.01,29.96,29.88,,,,25,5,30,0.42,,,259
2013-6-23,75,64,53,55,50,45,93,64,35,29.88,29.80,29.73,,,,16,6,21,0.00,,,254
2013-6-24,86,68,50,66,56,48,96,68,40,29.73,29.63,29.51,,,,18,7,23,0.00,,,99
2013-6-25,79,69,58,59,55,50,93,65,37,29.78,29.69,29.55,,,,28,9,39,0.09,,,287
2013-6-26,81,69,56,58,53,48,93,63,33,30.01,29.87,29.76,,,,25,9,30,0.00,,,292
2013-6-27,82,68,53,54,51,47,93,62,30,30.17,30.08,30.01,,,,22,9,26,0.00,,,295
2013-6-28,86,69,52,58,54,50,93,64,34,30.20,30.17,30.12,,,,14,6,17,0.00,,,320
2013-6-29,85,69,53,57,53,50,93,63,32,30.17,30.13,30.07,,,,14,5,17,0.00,,,103
2013-6-30,85,72,59,57,55,54,78,56,34,30.13,30.10,30.08,,,,16,9,21,0.00,,,103